Terminal Aerodrome Forecast
Issued by NWS

Home | Current Version | Previous Version | Text Only | Print | Product List | Glossary On
Versions: 1 2 3 4 5 6 7 8 9 10 11 12 13 14 15 16 17 18 19 20 21 22 23 24
000
FTUS41 KGYX 292321
TAFAUG
TAF
KAUG 292321Z 3000/3024 16008KT P6SM BKN012 OVC020
      TEMPO 3000/3002 3SM BR BKN008 OVC012
     FM300200 13005KT 2SM -DZ BR OVC007
     FM300600 VRB03KT 1SM -DZ BR OVC004
     FM301200 15007KT 5SM -SHRA BR OVC006 WS015/23025KT
     FM301700 19008KT 6SM HZ SCT020 BKN035 BKN080=

USA.gov is the U.S. government's official web portal to all federal, state and local government web resources and services.